createdAt,value
2022-12-22T00:05:29.892Z,100
2022-12-22T00:15:30.358Z,100
2022-12-22T00:25:31.071Z,100
2022-12-22T00:35:31.785Z,100
2022-12-22T00:45:32.008Z,100
2022-12-22T00:55:32.794Z,100
2022-12-22T01:05:32.905Z,100
2022-12-22T01:15:33.910Z,100
2022-12-22T01:25:34.657Z,100
2022-12-22T01:55:35.659Z,100
2022-12-22T02:05:36.461Z,100
2022-12-22T02:15:36.985Z,100
2022-12-22T02:25:37.357Z,100
2022-12-22T02:35:37.522Z,100
2022-12-22T02:55:38.482Z,100
2022-12-22T03:05:39.272Z,100
2022-12-22T03:15:39.848Z,100
2022-12-22T03:25:40.714Z,100
2022-12-22T03:35:41.568Z,100
2022-12-22T04:05:42.907Z,100
2022-12-22T04:15:43.756Z,100
2022-12-22T04:25:44.042Z,100
2022-12-22T04:35:44.163Z,100
2022-12-22T04:55:45.922Z,100
2022-12-22T05:05:46.758Z,100
2022-12-22T05:15:47.306Z,100
2022-12-22T05:55:49.466Z,100
2022-12-22T06:05:50.473Z,100
2022-12-22T06:15:50.889Z,100
2022-12-22T06:55:53.445Z,100
2022-12-22T07:05:54.401Z,100
2022-12-22T07:16:00.405Z,100
2022-12-22T07:25:55.913Z,100
2022-12-22T07:35:56.763Z,100
2022-12-22T07:55:57.199Z,100
2022-12-22T08:05:57.551Z,100
2022-12-22T08:15:57.925Z,100
2022-12-22T08:25:58.359Z,100
2022-12-22T08:46:00.134Z,100
2022-12-22T08:56:00.501Z,100
2022-12-22T09:06:01.492Z,100
2022-12-22T09:16:02.347Z,100
2022-12-22T09:36:03.139Z,100
2022-12-22T09:46:04.044Z,100
2022-12-22T09:56:04.742Z,100
2022-12-22T10:06:05.100Z,100
2022-12-22T10:16:05.583Z,100
2022-12-22T10:36:06.405Z,100
2022-12-22T10:56:07.515Z,100
2022-12-22T11:06:07.811Z,100
2022-12-22T11:16:08.014Z,100
2022-12-22T11:36:09.446Z,100
2022-12-22T11:56:10.971Z,100
2022-12-22T12:06:11.747Z,97
2022-12-22T12:08:50.155Z,97
2022-12-22T12:16:20.255Z,97
2022-12-22T12:26:21.075Z,97
2022-12-22T12:36:21.680Z,96
2022-12-22T12:46:22.212Z,96
2022-12-22T12:56:22.366Z,95
2022-12-22T13:06:23.274Z,94
2022-12-22T13:16:24.150Z,93
2022-12-22T13:26:24.779Z,91
2022-12-22T13:36:25.462Z,91
2022-12-22T13:46:26.238Z,91
2022-12-22T13:56:27.217Z,92
2022-12-22T14:06:28.225Z,93
2022-12-22T14:17:32.795Z,92
2022-12-22T14:26:29.828Z,92
2022-12-22T14:36:30.677Z,92
2022-12-22T14:46:35.166Z,92
2022-12-22T14:56:31.661Z,92
2022-12-22T15:06:32.623Z,92
2022-12-22T15:16:33.010Z,93
2022-12-22T15:36:34.594Z,93
2022-12-22T15:56:35.484Z,94
2022-12-22T16:06:36.544Z,95
2022-12-22T16:16:36.761Z,95
2022-12-22T16:26:37.180Z,95
2022-12-22T16:36:38.255Z,96
2022-12-22T16:56:38.934Z,97
2022-12-22T17:16:40.168Z,100
2022-12-22T17:26:40.292Z,100
2022-12-22T17:36:40.977Z,100
2022-12-22T17:46:41.635Z,100
2022-12-22T17:56:41.610Z,100
2022-12-22T18:06:42.046Z,100
2022-12-22T18:16:42.621Z,100
2022-12-22T18:26:43.261Z,100
2022-12-22T18:36:44.324Z,100
2022-12-22T18:56:45.245Z,100
2022-12-22T19:06:45.639Z,100
2022-12-22T19:16:46.436Z,100
2022-12-22T19:26:46.731Z,100
2022-12-22T19:36:46.963Z,100
2022-12-22T19:46:47.248Z,100
2022-12-22T19:56:47.527Z,100
2022-12-22T20:06:48.434Z,100
2022-12-22T20:16:49.426Z,100
2022-12-22T20:26:54.017Z,100
2022-12-22T20:36:50.697Z,100
2022-12-22T20:46:51.289Z,100
2022-12-22T20:56:52.078Z,100
2022-12-22T21:06:52.345Z,100
2022-12-22T21:16:52.943Z,100
2022-12-22T21:26:52.936Z,100
2022-12-22T21:36:53.269Z,100
2022-12-22T21:46:53.965Z,100
2022-12-22T21:56:54.205Z,100
2022-12-22T22:06:54.915Z,100
2022-12-22T22:16:55.346Z,100
2022-12-22T22:26:55.723Z,100
2022-12-22T22:36:56.435Z,100
2022-12-22T22:46:56.669Z,100
2022-12-22T22:56:57.489Z,100
2022-12-22T23:06:57.704Z,100
2022-12-22T23:16:57.977Z,100
2022-12-22T23:26:58.970Z,100
2022-12-22T23:36:59.971Z,100
2022-12-22T23:47:00.307Z,100
2022-12-22T23:57:00.485Z,100
